Terminal Aerodrome Forecast
Issued by NWS

Home | Current Version | Previous Version | Text Only | Print | Product List | Glossary On
Versions: 1 2 3 4 5 6 7 8 9 10 11 12 13 14 15 16 17 18 19 20 21 22 23
000
FTUS43 KGRR 040920 AAA
TAFMKG
TAF AMD
KMKG 040920Z 0409/0506 33004KT 6SM BR BKN009
     FM041130 32003KT 3SM BR BKN003
     FM041400 VRB04KT 4SM BR BKN006
     FM041800 27007KT P6SM VCTS BKN015CB
     FM050000 VRB02KT P6SM SCT050=

USA.gov is the U.S. government's official web portal to all federal, state and local government web resources and services.